Terminal Aerodrome Forecast
Issued by NWS

Home | Current Version | Previous Version | Text Only | Print | Product List | Glossary On
Versions: 1 2 3 4 5 6 7 8 9 10 11 12 13 14 15 16 17 18
093
FTUS44 KMAF 230025 AAA
TAFPEQ
TAF AMD
KPEQ 230025Z 2300/2324 11018G26KT P6SM SCT120 BKN250
      TEMPO 2300/2302 VRB25G35KT 5SM TSRA BKN080CB
     FM230200 12015G25KT P6SM FEW100 FEW200
     FM231000 11012KT P6SM OVC035
     FM231800 12013G23KT P6SM SCT040 OVC250=

USA.gov is the U.S. government's official web portal to all federal, state and local government web resources and services.